sensor_id;sensor_type;location;lat;lon;timestamp;temperature;humidity
11387;DHT22;5748;53.102;8.456;2023-12-22T00:01:55;8.90;72.00
11387;DHT22;5748;53.102;8.456;2023-12-22T00:04:22;8.90;71.90
11387;DHT22;5748;53.102;8.456;2023-12-22T00:06:49;8.90;71.90
11387;DHT22;5748;53.102;8.456;2023-12-22T00:09:17;8.90;72.00
11387;DHT22;5748;53.102;8.456;2023-12-22T00:11:46;8.90;72.10
11387;DHT22;5748;53.102;8.456;2023-12-22T00:14:13;8.90;72.10
11387;DHT22;5748;53.102;8.456;2023-12-22T00:16:40;8.90;72.10
11387;DHT22;5748;53.102;8.456;2023-12-22T00:19:07;8.90;71.90
11387;DHT22;5748;53.102;8.456;2023-12-22T00:21:35;8.90;71.80
11387;DHT22;5748;53.102;8.456;2023-12-22T00:24:02;8.90;71.70
11387;DHT22;5748;53.102;8.456;2023-12-22T00:26:29;8.80;71.70
11387;DHT22;5748;53.102;8.456;2023-12-22T00:28:58;8.80;71.70
11387;DHT22;5748;53.102;8.456;2023-12-22T00:31:25;8.70;71.60
11387;DHT22;5748;53.102;8.456;2023-12-22T00:33:52;8.70;71.60
11387;DHT22;5748;53.102;8.456;2023-12-22T00:36:19;8.70;71.70
11387;DHT22;5748;53.102;8.456;2023-12-22T00:38:48;8.70;71.70
11387;DHT22;5748;53.102;8.456;2023-12-22T00:41:15;8.60;71.60
11387;DHT22;5748;53.102;8.456;2023-12-22T00:43:42;8.60;71.50
11387;DHT22;5748;53.102;8.456;2023-12-22T00:46:11;8.60;71.50
11387;DHT22;5748;53.102;8.456;2023-12-22T00:48:38;8.50;70.90
11387;DHT22;5748;53.102;8.456;2023-12-22T00:51:06;8.50;71.40
11387;DHT22;5748;53.102;8.456;2023-12-22T00:53:33;8.50;71.50
11387;DHT22;5748;53.102;8.456;2023-12-22T00:56:00;8.50;71.70
11387;DHT22;5748;53.102;8.456;2023-12-22T00:58:28;8.50;71.90
11387;DHT22;5748;53.102;8.456;2023-12-22T01:00:55;8.50;72.10
11387;DHT22;5748;53.102;8.456;2023-12-22T01:03:24;8.50;72.10
11387;DHT22;5748;53.102;8.456;2023-12-22T01:05:51;8.50;72.20
11387;DHT22;5748;53.102;8.456;2023-12-22T01:08:18;8.50;72.10
11387;DHT22;5748;53.102;8.456;2023-12-22T01:10:46;8.50;72.10
11387;DHT22;5748;53.102;8.456;2023-12-22T01:13:13;8.50;72.00
11387;DHT22;5748;53.102;8.456;2023-12-22T01:15:40;8.50;72.00
11387;DHT22;5748;53.102;8.456;2023-12-22T01:18:09;8.50;72.10
11387;DHT22;5748;53.102;8.456;2023-12-22T01:20:37;8.50;71.80
11387;DHT22;5748;53.102;8.456;2023-12-22T01:23:05;8.50;72.30
11387;DHT22;5748;53.102;8.456;2023-12-22T01:25:32;8.50;72.30
11387;DHT22;5748;53.102;8.456;2023-12-22T01:27:59;8.60;72.50
11387;DHT22;5748;53.102;8.456;2023-12-22T01:30:26;8.60;72.40
11387;DHT22;5748;53.102;8.456;2023-12-22T01:32:53;8.60;72.40
11387;DHT22;5748;53.102;8.456;2023-12-22T01:35:20;8.70;72.40
11387;DHT22;5748;53.102;8.456;2023-12-22T01:37:48;8.60;72.20
11387;DHT22;5748;53.102;8.456;2023-12-22T01:40:16;8.60;72.20
11387;DHT22;5748;53.102;8.456;2023-12-22T01:42:43;8.60;72.30
11387;DHT22;5748;53.102;8.456;2023-12-22T01:45:11;8.90;72.50
11387;DHT22;5748;53.102;8.456;2023-12-22T01:47:38;8.60;72.30
11387;DHT22;5748;53.102;8.456;2023-12-22T01:50:06;8.60;71.80
11387;DHT22;5748;53.102;8.456;2023-12-22T01:52:36;8.60;72.40
11387;DHT22;5748;53.102;8.456;2023-12-22T01:55:06;8.60;72.40
11387;DHT22;5748;53.102;8.456;2023-12-22T01:57:34;8.50;72.30
11387;DHT22;5748;53.102;8.456;2023-12-22T02:00:02;8.50;71.60
11387;DHT22;5748;53.102;8.456;2023-12-22T02:02:30;9.80;73.40
11387;DHT22;5748;53.102;8.456;2023-12-22T02:04:57;8.50;72.00
11387;DHT22;5748;53.102;8.456;2023-12-22T02:07:24;8.40;72.00
11387;DHT22;5748;53.102;8.456;2023-12-22T02:09:51;8.40;72.00
11387;DHT22;5748;53.102;8.456;2023-12-22T02:12:20;8.30;71.40
11387;DHT22;5748;53.102;8.456;2023-12-22T02:14:47;8.70;72.40
11387;DHT22;5748;53.102;8.456;2023-12-22T02:17:18;8.30;72.10
11387;DHT22;5748;53.102;8.456;2023-12-22T02:19:48;8.20;72.20
11387;DHT22;5748;53.102;8.456;2023-12-22T02:22:15;8.20;73.10
11387;DHT22;5748;53.102;8.456;2023-12-22T02:24:44;8.10;72.40
11387;DHT22;5748;53.102;8.456;2023-12-22T02:27:19;8.10;72.60
11387;DHT22;5748;53.102;8.456;2023-12-22T02:29:52;8.10;72.80
11387;DHT22;5748;53.102;8.456;2023-12-22T02:32:28;8.90;73.60
11387;DHT22;5748;53.102;8.456;2023-12-22T02:34:58;8.10;72.70
11387;DHT22;5748;53.102;8.456;2023-12-22T02:37:28;8.10;72.70
11387;DHT22;5748;53.102;8.456;2023-12-22T02:39:58;8.10;72.10
11387;DHT22;5748;53.102;8.456;2023-12-22T02:42:26;8.10;72.70
11387;DHT22;5748;53.102;8.456;2023-12-22T02:44:56;8.10;72.50
11387;DHT22;5748;53.102;8.456;2023-12-22T02:47:23;8.10;72.50
11387;DHT22;5748;53.102;8.456;2023-12-22T02:49:53;8.10;72.30
11387;DHT22;5748;53.102;8.456;2023-12-22T02:52:20;8.10;72.20
11387;DHT22;5748;53.102;8.456;2023-12-22T02:54:47;8.10;72.20
11387;DHT22;5748;53.102;8.456;2023-12-22T02:57:15;8.60;72.70
11387;DHT22;5748;53.102;8.456;2023-12-22T02:59:42;8.00;72.10
11387;DHT22;5748;53.102;8.456;2023-12-22T03:02:09;8.00;72.00
11387;DHT22;5748;53.102;8.456;2023-12-22T03:04:36;7.90;72.00
11387;DHT22;5748;53.102;8.456;2023-12-22T03:07:03;7.90;72.00
11387;DHT22;5748;53.102;8.456;2023-12-22T03:09:31;7.90;72.00
11387;DHT22;5748;53.102;8.456;2023-12-22T03:11:59;7.90;72.00
11387;DHT22;5748;53.102;8.456;2023-12-22T03:14:29;8.10;73.00
11387;DHT22;5748;53.102;8.456;2023-12-22T03:16:56;7.90;72.20
11387;DHT22;5748;53.102;8.456;2023-12-22T03:19:23;7.90;72.20
11387;DHT22;5748;53.102;8.456;2023-12-22T03:21:51;7.90;72.50
11387;DHT22;5748;53.102;8.456;2023-12-22T03:24:18;7.90;72.60
11387;DHT22;5748;53.102;8.456;2023-12-22T03:26:46;8.00;72.70
11387;DHT22;5748;53.102;8.456;2023-12-22T03:29:13;8.00;72.70
11387;DHT22;5748;53.102;8.456;2023-12-22T03:31:42;8.00;72.70
11387;DHT22;5748;53.102;8.456;2023-12-22T03:34:09;8.00;72.70
11387;DHT22;5748;53.102;8.456;2023-12-22T03:36:36;8.00;72.70
11387;DHT22;5748;53.102;8.456;2023-12-22T03:39:03;8.10;72.80
11387;DHT22;5748;53.102;8.456;2023-12-22T03:41:30;8.00;72.70
11387;DHT22;5748;53.102;8.456;2023-12-22T03:43:58;8.00;72.50
11387;DHT22;5748;53.102;8.456;2023-12-22T03:46:25;8.00;72.30
11387;DHT22;5748;53.102;8.456;2023-12-22T03:48:53;8.00;72.20
11387;DHT22;5748;53.102;8.456;2023-12-22T03:51:20;8.00;72.10
11387;DHT22;5748;53.102;8.456;2023-12-22T03:53:47;8.00;72.10
11387;DHT22;5748;53.102;8.456;2023-12-22T03:56:14;8.00;72.00
11387;DHT22;5748;53.102;8.456;2023-12-22T03:58:41;8.00;71.90
11387;DHT22;5748;53.102;8.456;2023-12-22T04:01:08;8.00;71.90
11387;DHT22;5748;53.102;8.456;2023-12-22T04:03:35;7.90;71.80
11387;DHT22;5748;53.102;8.456;2023-12-22T04:06:04;7.90;71.90
11387;DHT22;5748;53.102;8.456;2023-12-22T04:08:31;7.90;72.00
11387;DHT22;5748;53.102;8.456;2023-12-22T04:10:58;7.90;72.00
11387;DHT22;5748;53.102;8.456;2023-12-22T04:13:25;7.90;72.00
11387;DHT22;5748;53.102;8.456;2023-12-22T04:15:52;7.90;72.10
11387;DHT22;5748;53.102;8.456;2023-12-22T04:18:19;8.10;72.40
11387;DHT22;5748;53.102;8.456;2023-12-22T04:20:46;7.90;72.50
11387;DHT22;5748;53.102;8.456;2023-12-22T04:23:16;7.90;72.70
11387;DHT22;5748;53.102;8.456;2023-12-22T04:25:43;8.00;72.80
11387;DHT22;5748;53.102;8.456;2023-12-22T04:28:10;8.00;72.80
11387;DHT22;5748;53.102;8.456;2023-12-22T04:30:37;8.00;72.70
11387;DHT22;5748;53.102;8.456;2023-12-22T04:33:05;8.00;72.70
11387;DHT22;5748;53.102;8.456;2023-12-22T04:35:32;8.10;72.70
11387;DHT22;5748;53.102;8.456;2023-12-22T04:37:59;8.10;72.70
11387;DHT22;5748;53.102;8.456;2023-12-22T04:40:27;8.10;72.70
11387;DHT22;5748;53.102;8.456;2023-12-22T04:42:54;8.20;72.70
11387;DHT22;5748;53.102;8.456;2023-12-22T04:45:21;8.20;72.50
11387;DHT22;5748;53.102;8.456;2023-12-22T04:47:48;8.20;72.40
11387;DHT22;5748;53.102;8.456;2023-12-22T04:50:15;8.20;72.20
11387;DHT22;5748;53.102;8.456;2023-12-22T04:52:42;8.30;72.30
11387;DHT22;5748;53.102;8.456;2023-12-22T04:55:09;8.30;72.10
11387;DHT22;5748;53.102;8.456;2023-12-22T04:57:38;8.30;72.10
11387;DHT22;5748;53.102;8.456;2023-12-22T05:00:06;8.30;72.20
11387;DHT22;5748;53.102;8.456;2023-12-22T05:02:34;8.40;72.30
11387;DHT22;5748;53.102;8.456;2023-12-22T05:05:00;8.40;72.00
11387;DHT22;5748;53.102;8.456;2023-12-22T05:07:28;8.50;71.90
11387;DHT22;5748;53.102;8.456;2023-12-22T05:09:56;8.50;71.60
11387;DHT22;5748;53.102;8.456;2023-12-22T05:12:23;8.50;72.10
11387;DHT22;5748;53.102;8.456;2023-12-22T05:14:51;8.50;72.10
11387;DHT22;5748;53.102;8.456;2023-12-22T05:17:18;8.60;72.30
11387;DHT22;5748;53.102;8.456;2023-12-22T05:19:45;8.60;72.30
11387;DHT22;5748;53.102;8.456;2023-12-22T05:22:12;8.70;72.30
11387;DHT22;5748;53.102;8.456;2023-12-22T05:24:39;8.70;72.30
11387;DHT22;5748;53.102;8.456;2023-12-22T05:27:06;8.70;72.10
11387;DHT22;5748;53.102;8.456;2023-12-22T05:29:33;8.70;72.00
11387;DHT22;5748;53.102;8.456;2023-12-22T05:32:02;8.70;71.70
11387;DHT22;5748;53.102;8.456;2023-12-22T05:34:29;8.70;71.70
11387;DHT22;5748;53.102;8.456;2023-12-22T05:36:56;8.70;71.50
11387;DHT22;5748;53.102;8.456;2023-12-22T05:39:23;8.70;71.20
11387;DHT22;5748;53.102;8.456;2023-12-22T05:41:50;8.60;71.10
11387;DHT22;5748;53.102;8.456;2023-12-22T05:44:17;8.50;70.80
11387;DHT22;5748;53.102;8.456;2023-12-22T05:46:44;8.50;70.90
11387;DHT22;5748;53.102;8.456;2023-12-22T05:49:13;8.30;70.30
11387;DHT22;5748;53.102;8.456;2023-12-22T05:51:40;8.30;70.70
11387;DHT22;5748;53.102;8.456;2023-12-22T05:54:09;8.30;70.90
11387;DHT22;5748;53.102;8.456;2023-12-22T05:56:37;8.20;71.00
11387;DHT22;5748;53.102;8.456;2023-12-22T05:59:03;8.20;71.10
11387;DHT22;5748;53.102;8.456;2023-12-22T06:01:31;8.10;71.20
11387;DHT22;5748;53.102;8.456;2023-12-22T06:03:58;8.20;71.30
11387;DHT22;5748;53.102;8.456;2023-12-22T06:06:26;8.10;71.50
11387;DHT22;5748;53.102;8.456;2023-12-22T06:08:54;8.20;71.90
11387;DHT22;5748;53.102;8.456;2023-12-22T06:11:21;8.20;71.90
11387;DHT22;5748;53.102;8.456;2023-12-22T06:13:48;8.20;72.00
11387;DHT22;5748;53.102;8.456;2023-12-22T06:16:16;8.20;72.10
11387;DHT22;5748;53.102;8.456;2023-12-22T06:18:44;8.30;72.20
11387;DHT22;5748;53.102;8.456;2023-12-22T06:21:11;8.30;72.20
11387;DHT22;5748;53.102;8.456;2023-12-22T06:23:39;8.30;72.00
11387;DHT22;5748;53.102;8.456;2023-12-22T06:26:09;8.30;72.00
11387;DHT22;5748;53.102;8.456;2023-12-22T06:28:37;8.30;72.10
11387;DHT22;5748;53.102;8.456;2023-12-22T06:31:05;8.30;72.10
11387;DHT22;5748;53.102;8.456;2023-12-22T06:33:32;8.30;72.00
11387;DHT22;5748;53.102;8.456;2023-12-22T06:35:59;8.30;72.10
11387;DHT22;5748;53.102;8.456;2023-12-22T06:38:26;8.30;72.10
11387;DHT22;5748;53.102;8.456;2023-12-22T06:40:54;8.30;72.20
11387;DHT22;5748;53.102;8.456;2023-12-22T06:43:21;8.30;72.10
11387;DHT22;5748;53.102;8.456;2023-12-22T06:45:50;8.40;72.30
11387;DHT22;5748;53.102;8.456;2023-12-22T06:48:20;8.40;72.40
11387;DHT22;5748;53.102;8.456;2023-12-22T06:50:47;8.40;72.50
11387;DHT22;5748;53.102;8.456;2023-12-22T06:53:14;8.40;72.60
11387;DHT22;5748;53.102;8.456;2023-12-22T06:55:41;8.40;72.60
11387;DHT22;5748;53.102;8.456;2023-12-22T06:58:09;8.50;72.60
11387;DHT22;5748;53.102;8.456;2023-12-22T07:00:36;8.50;72.60
11387;DHT22;5748;53.102;8.456;2023-12-22T07:03:04;8.50;72.60
11387;DHT22;5748;53.102;8.456;2023-12-22T07:05:33;8.60;72.60
11387;DHT22;5748;53.102;8.456;2023-12-22T07:08:06;8.60;72.60
11387;DHT22;5748;53.102;8.456;2023-12-22T07:10:33;8.60;72.60
11387;DHT22;5748;53.102;8.456;2023-12-22T07:13:00;8.70;72.10
11387;DHT22;5748;53.102;8.456;2023-12-22T07:15:28;8.60;72.60
11387;DHT22;5748;53.102;8.456;2023-12-22T07:17:55;8.70;72.70
11387;DHT22;5748;53.102;8.456;2023-12-22T07:20:22;8.70;72.60
11387;DHT22;5748;53.102;8.456;2023-12-22T07:22:49;8.80;72.60
11387;DHT22;5748;53.102;8.456;2023-12-22T07:25:16;8.80;72.50
11387;DHT22;5748;53.102;8.456;2023-12-22T07:27:45;8.80;72.50
11387;DHT22;5748;53.102;8.456;2023-12-22T07:30:13;8.80;72.40
11387;DHT22;5748;53.102;8.456;2023-12-22T07:32:45;8.80;72.60
11387;DHT22;5748;53.102;8.456;2023-12-22T07:35:14;8.90;72.60
11387;DHT22;5748;53.102;8.456;2023-12-22T07:37:41;9.00;72.40
11387;DHT22;5748;53.102;8.456;2023-12-22T07:40:09;8.90;71.60
11387;DHT22;5748;53.102;8.456;2023-12-22T07:42:37;8.90;72.20
11387;DHT22;5748;53.102;8.456;2023-12-22T07:45:05;8.90;71.90
11387;DHT22;5748;53.102;8.456;2023-12-22T07:47:34;8.90;71.90
11387;DHT22;5748;53.102;8.456;2023-12-22T07:50:04;8.90;71.30
11387;DHT22;5748;53.102;8.456;2023-12-22T07:52:34;8.90;71.90
11387;DHT22;5748;53.102;8.456;2023-12-22T07:55:05;8.90;71.80
11387;DHT22;5748;53.102;8.456;2023-12-22T07:57:34;8.90;71.80
11387;DHT22;5748;53.102;8.456;2023-12-22T08:00:02;9.00;71.30
11387;DHT22;5748;53.102;8.456;2023-12-22T08:02:30;9.00;71.80
11387;DHT22;5748;53.102;8.456;2023-12-22T08:04:57;9.00;71.90
11387;DHT22;5748;53.102;8.456;2023-12-22T08:07:26;9.10;72.10
11387;DHT22;5748;53.102;8.456;2023-12-22T08:09:53;9.10;72.00
11387;DHT22;5748;53.102;8.456;2023-12-22T08:12:20;9.20;71.60
11387;DHT22;5748;53.102;8.456;2023-12-22T08:14:47;9.20;72.10
11387;DHT22;5748;53.102;8.456;2023-12-22T08:17:14;9.20;72.10
11387;DHT22;5748;53.102;8.456;2023-12-22T08:19:41;9.30;72.10
11387;DHT22;5748;53.102;8.456;2023-12-22T08:22:09;9.40;72.10
11387;DHT22;5748;53.102;8.456;2023-12-22T08:24:39;9.40;72.00
11387;DHT22;5748;53.102;8.456;2023-12-22T08:27:07;9.50;72.00
11387;DHT22;5748;53.102;8.456;2023-12-22T08:29:34;9.50;72.20
11387;DHT22;5748;53.102;8.456;2023-12-22T08:32:01;9.60;72.30
11387;DHT22;5748;53.102;8.456;2023-12-22T08:34:28;9.70;71.60
11387;DHT22;5748;53.102;8.456;2023-12-22T08:36:55;9.70;72.20
11387;DHT22;5748;53.102;8.456;2023-12-22T08:39:22;9.70;72.00
11387;DHT22;5748;53.102;8.456;2023-12-22T08:41:52;9.80;72.10
11387;DHT22;5748;53.102;8.456;2023-12-22T08:44:19;9.80;72.00
11387;DHT22;5748;53.102;8.456;2023-12-22T08:46:46;9.80;71.80
11387;DHT22;5748;53.102;8.456;2023-12-22T08:49:13;9.80;71.80
11387;DHT22;5748;53.102;8.456;2023-12-22T08:51:40;10.00;70.80
11387;DHT22;5748;53.102;8.456;2023-12-22T08:54:08;9.90;71.80
11387;DHT22;5748;53.102;8.456;2023-12-22T08:56:35;9.90;71.70
11387;DHT22;5748;53.102;8.456;2023-12-22T08:59:03;10.30;70.90
11387;DHT22;5748;53.102;8.456;2023-12-22T09:01:30;10.00;70.50
11387;DHT22;5748;53.102;8.456;2023-12-22T09:03:57;10.00;70.60
11387;DHT22;5748;53.102;8.456;2023-12-22T09:06:24;10.00;70.50
11387;DHT22;5748;53.102;8.456;2023-12-22T09:08:52;10.00;70.30
11387;DHT22;5748;53.102;8.456;2023-12-22T09:11:20;10.00;70.60
11387;DHT22;5748;53.102;8.456;2023-12-22T09:13:47;10.10;70.90
11387;DHT22;5748;53.102;8.456;2023-12-22T09:16:20;10.10;70.90
11387;DHT22;5748;53.102;8.456;2023-12-22T09:18:48;10.10;70.60
11387;DHT22;5748;53.102;8.456;2023-12-22T09:21:17;10.10;70.40
11387;DHT22;5748;53.102;8.456;2023-12-22T09:23:44;10.20;70.30
11387;DHT22;5748;53.102;8.456;2023-12-22T09:26:12;10.10;70.20
11387;DHT22;5748;53.102;8.456;2023-12-22T09:28:39;10.10;69.90
11387;DHT22;5748;53.102;8.456;2023-12-22T09:31:07;10.10;69.80
11387;DHT22;5748;53.102;8.456;2023-12-22T09:33:35;10.00;69.80
11387;DHT22;5748;53.102;8.456;2023-12-22T09:36:03;10.00;69.90
11387;DHT22;5748;53.102;8.456;2023-12-22T09:38:31;8.60;69.80
11387;DHT22;5748;53.102;8.456;2023-12-22T09:40:58;9.80;71.10
11387;DHT22;5748;53.102;8.456;2023-12-22T09:43:26;10.10;70.40
11387;DHT22;5748;53.102;8.456;2023-12-22T09:45:53;9.70;71.20
11387;DHT22;5748;53.102;8.456;2023-12-22T09:48:21;9.70;71.40
11387;DHT22;5748;53.102;8.456;2023-12-22T09:50:54;9.60;70.90
11387;DHT22;5748;53.102;8.456;2023-12-22T09:53:21;9.60;71.60
11387;DHT22;5748;53.102;8.456;2023-12-22T09:55:49;9.60;71.60
11387;DHT22;5748;53.102;8.456;2023-12-22T09:58:17;9.60;71.60
11387;DHT22;5748;53.102;8.456;2023-12-22T10:00:45;9.60;71.70
11387;DHT22;5748;53.102;8.456;2023-12-22T10:03:12;9.60;71.70
11387;DHT22;5748;53.102;8.456;2023-12-22T10:05:40;9.60;71.90
11387;DHT22;5748;53.102;8.456;2023-12-22T10:08:10;10.10;71.30
11387;DHT22;5748;53.102;8.456;2023-12-22T10:10:38;9.60;72.10
11387;DHT22;5748;53.102;8.456;2023-12-22T10:13:07;9.60;72.10
11387;DHT22;5748;53.102;8.456;2023-12-22T10:15:37;9.60;71.80
11387;DHT22;5748;53.102;8.456;2023-12-22T10:18:06;9.60;71.70
11387;DHT22;5748;53.102;8.456;2023-12-22T10:20:34;9.60;71.60
11387;DHT22;5748;53.102;8.456;2023-12-22T10:23:02;9.50;71.60
11387;DHT22;5748;53.102;8.456;2023-12-22T10:25:31;9.50;71.80
11387;DHT22;5748;53.102;8.456;2023-12-22T10:27:58;9.40;71.80
11387;DHT22;5748;53.102;8.456;2023-12-22T10:30:25;9.40;72.00
11387;DHT22;5748;53.102;8.456;2023-12-22T10:32:54;9.40;72.10
11387;DHT22;5748;53.102;8.456;2023-12-22T10:35:22;9.40;72.10
11387;DHT22;5748;53.102;8.456;2023-12-22T10:37:49;9.40;72.40
11387;DHT22;5748;53.102;8.456;2023-12-22T10:40:18;9.40;72.40
11387;DHT22;5748;53.102;8.456;2023-12-22T10:42:48;9.50;72.50
11387;DHT22;5748;53.102;8.456;2023-12-22T10:45:15;9.40;72.40
11387;DHT22;5748;53.102;8.456;2023-12-22T10:47:44;9.50;72.50
11387;DHT22;5748;53.102;8.456;2023-12-22T10:50:12;9.50;72.00
11387;DHT22;5748;53.102;8.456;2023-12-22T10:52:40;9.50;72.50
11387;DHT22;5748;53.102;8.456;2023-12-22T10:55:08;9.50;72.50
11387;DHT22;5748;53.102;8.456;2023-12-22T10:57:36;9.50;72.60
11387;DHT22;5748;53.102;8.456;2023-12-22T11:00:07;9.50;72.00
11387;DHT22;5748;53.102;8.456;2023-12-22T11:02:35;9.50;72.60
11387;DHT22;5748;53.102;8.456;2023-12-22T11:05:07;9.70;72.70
11387;DHT22;5748;53.102;8.456;2023-12-22T11:07:38;9.60;72.70
11387;DHT22;5748;53.102;8.456;2023-12-22T11:10:06;9.60;72.60
11387;DHT22;5748;53.102;8.456;2023-12-22T11:12:35;9.60;72.70
11387;DHT22;5748;53.102;8.456;2023-12-22T11:15:05;9.60;72.80
11387;DHT22;5748;53.102;8.456;2023-12-22T11:17:33;9.60;72.90
11387;DHT22;5748;53.102;8.456;2023-12-22T11:20:02;9.70;72.90
11387;DHT22;5748;53.102;8.456;2023-12-22T11:22:31;9.70;73.00
11387;DHT22;5748;53.102;8.456;2023-12-22T11:25:00;9.80;73.10
11387;DHT22;5748;53.102;8.456;2023-12-22T11:27:29;9.80;73.10
11387;DHT22;5748;53.102;8.456;2023-12-22T11:30:01;9.80;73.10
11387;DHT22;5748;53.102;8.456;2023-12-22T11:32:29;9.90;73.20
11387;DHT22;5748;53.102;8.456;2023-12-22T11:34:57;9.80;73.20
11387;DHT22;5748;53.102;8.456;2023-12-22T11:37:26;9.90;73.30
11387;DHT22;5748;53.102;8.456;2023-12-22T11:39:53;9.90;73.10
11387;DHT22;5748;53.102;8.456;2023-12-22T11:42:25;10.00;72.10
11387;DHT22;5748;53.102;8.456;2023-12-22T11:44:54;10.00;72.20
11387;DHT22;5748;53.102;8.456;2023-12-22T11:47:23;10.00;72.10
11387;DHT22;5748;53.102;8.456;2023-12-22T11:49:51;10.00;72.40
11387;DHT22;5748;53.102;8.456;2023-12-22T11:52:25;10.10;72.30
11387;DHT22;5748;53.102;8.456;2023-12-22T11:54:54;10.10;72.40
11387;DHT22;5748;53.102;8.456;2023-12-22T11:57:33;10.30;72.60
11387;DHT22;5748;53.102;8.456;2023-12-22T12:00:06;10.20;71.90
11387;DHT22;5748;53.102;8.456;2023-12-22T12:02:35;10.20;72.50
11387;DHT22;5748;53.102;8.456;2023-12-22T12:05:07;10.20;72.40
11387;DHT22;5748;53.102;8.456;2023-12-22T12:07:39;10.20;72.50
11387;DHT22;5748;53.102;8.456;2023-12-22T12:10:10;10.30;72.60
11387;DHT22;5748;53.102;8.456;2023-12-22T12:12:38;10.30;72.50
11387;DHT22;5748;53.102;8.456;2023-12-22T12:15:10;10.40;72.50
11387;DHT22;5748;53.102;8.456;2023-12-22T12:17:41;10.40;72.50
11387;DHT22;5748;53.102;8.456;2023-12-22T12:20:11;10.40;71.80
11387;DHT22;5748;53.102;8.456;2023-12-22T12:22:39;10.40;72.30
11387;DHT22;5748;53.102;8.456;2023-12-22T12:25:10;10.40;72.20
11387;DHT22;5748;53.102;8.456;2023-12-22T12:27:38;10.40;72.20
11387;DHT22;5748;53.102;8.456;2023-12-22T12:30:13;10.50;71.70
11387;DHT22;5748;53.102;8.456;2023-12-22T12:32:43;10.50;72.30
11387;DHT22;5748;53.102;8.456;2023-12-22T12:35:12;10.50;72.20
11387;DHT22;5748;53.102;8.456;2023-12-22T12:37:40;10.50;72.20
11387;DHT22;5748;53.102;8.456;2023-12-22T12:40:08;10.50;72.10
11387;DHT22;5748;53.102;8.456;2023-12-22T12:42:38;10.50;72.10
11387;DHT22;5748;53.102;8.456;2023-12-22T12:45:06;10.50;71.60
11387;DHT22;5748;53.102;8.456;2023-12-22T12:47:34;10.50;72.20
11387;DHT22;5748;53.102;8.456;2023-12-22T12:50:02;10.50;72.10
11387;DHT22;5748;53.102;8.456;2023-12-22T12:52:31;10.50;72.10
11387;DHT22;5748;53.102;8.456;2023-12-22T12:54:58;10.50;72.00
11387;DHT22;5748;53.102;8.456;2023-12-22T12:57:26;10.50;71.90
11387;DHT22;5748;53.102;8.456;2023-12-22T12:59:53;10.20;71.50
11387;DHT22;5748;53.102;8.456;2023-12-22T13:02:20;10.90;73.00
11387;DHT22;5748;53.102;8.456;2023-12-22T13:04:49;10.50;71.80
11387;DHT22;5748;53.102;8.456;2023-12-22T13:07:24;10.50;71.80
11387;DHT22;5748;53.102;8.456;2023-12-22T13:09:53;10.50;71.90
11387;DHT22;5748;53.102;8.456;2023-12-22T13:12:22;10.50;71.90
11387;DHT22;5748;53.102;8.456;2023-12-22T13:14:51;10.50;71.90
11387;DHT22;5748;53.102;8.456;2023-12-22T13:17:18;10.50;71.80
11387;DHT22;5748;53.102;8.456;2023-12-22T13:19:45;10.50;71.80
11387;DHT22;5748;53.102;8.456;2023-12-22T13:22:12;10.60;72.00
11387;DHT22;5748;53.102;8.456;2023-12-22T13:24:39;10.60;71.80
11387;DHT22;5748;53.102;8.456;2023-12-22T13:27:08;10.60;71.70
11387;DHT22;5748;53.102;8.456;2023-12-22T13:29:42;10.60;71.70
11387;DHT22;5748;53.102;8.456;2023-12-22T13:32:17;10.70;71.80
11387;DHT22;5748;53.102;8.456;2023-12-22T13:34:49;10.60;71.70
11387;DHT22;5748;53.102;8.456;2023-12-22T13:37:17;10.60;71.70
11387;DHT22;5748;53.102;8.456;2023-12-22T13:39:45;10.70;71.80
11387;DHT22;5748;53.102;8.456;2023-12-22T13:42:17;10.70;71.90
11387;DHT22;5748;53.102;8.456;2023-12-22T13:44:46;10.70;71.90
11387;DHT22;5748;53.102;8.456;2023-12-22T13:47:15;10.70;72.60
11387;DHT22;5748;53.102;8.456;2023-12-22T13:49:42;10.70;71.80
11387;DHT22;5748;53.102;8.456;2023-12-22T13:52:24;11.40;72.50
11387;DHT22;5748;53.102;8.456;2023-12-22T13:54:53;10.80;71.80
11387;DHT22;5748;53.102;8.456;2023-12-22T13:57:23;10.80;71.80
11387;DHT22;5748;53.102;8.456;2023-12-22T13:59:50;10.80;71.60
11387;DHT22;5748;53.102;8.456;2023-12-22T14:02:20;10.90;71.40
11387;DHT22;5748;53.102;8.456;2023-12-22T14:04:48;10.80;71.20
11387;DHT22;5748;53.102;8.456;2023-12-22T14:07:16;10.80;71.10
11387;DHT22;5748;53.102;8.456;2023-12-22T14:09:43;10.80;71.00
11387;DHT22;5748;53.102;8.456;2023-12-22T14:12:10;10.80;70.90
11387;DHT22;5748;53.102;8.456;2023-12-22T14:14:38;10.70;70.80
11387;DHT22;5748;53.102;8.456;2023-12-22T14:17:06;10.80;70.80
11387;DHT22;5748;53.102;8.456;2023-12-22T14:19:33;10.80;70.80
11387;DHT22;5748;53.102;8.456;2023-12-22T14:22:00;10.70;70.80
11387;DHT22;5748;53.102;8.456;2023-12-22T14:24:27;10.80;70.80
11387;DHT22;5748;53.102;8.456;2023-12-22T14:26:54;10.70;70.80
11387;DHT22;5748;53.102;8.456;2023-12-22T14:29:22;10.70;70.90
11387;DHT22;5748;53.102;8.456;2023-12-22T14:31:51;10.70;70.90
11387;DHT22;5748;53.102;8.456;2023-12-22T14:34:19;10.70;71.10
11387;DHT22;5748;53.102;8.456;2023-12-22T14:36:46;11.50;71.60
11387;DHT22;5748;53.102;8.456;2023-12-22T14:39:13;10.70;71.40
11387;DHT22;5748;53.102;8.456;2023-12-22T14:41:40;10.60;70.50
11387;DHT22;5748;53.102;8.456;2023-12-22T14:44:08;10.50;70.40
11387;DHT22;5748;53.102;8.456;2023-12-22T14:46:37;10.40;70.30
11387;DHT22;5748;53.102;8.456;2023-12-22T14:49:07;10.40;70.40
11387;DHT22;5748;53.102;8.456;2023-12-22T14:51:37;10.20;70.30
11387;DHT22;5748;53.102;8.456;2023-12-22T14:54:04;10.10;70.40
11387;DHT22;5748;53.102;8.456;2023-12-22T14:56:32;10.20;70.60
11387;DHT22;5748;53.102;8.456;2023-12-22T14:58:59;10.10;70.50
11387;DHT22;5748;53.102;8.456;2023-12-22T15:01:26;10.10;70.60
11387;DHT22;5748;53.102;8.456;2023-12-22T15:03:53;10.10;70.70
11387;DHT22;5748;53.102;8.456;2023-12-22T15:06:22;10.20;70.90
11387;DHT22;5748;53.102;8.456;2023-12-22T15:08:49;10.00;70.80
11387;DHT22;5748;53.102;8.456;2023-12-22T15:11:16;9.90;71.80
11387;DHT22;5748;53.102;8.456;2023-12-22T15:13:43;9.90;72.20
11387;DHT22;5748;53.102;8.456;2023-12-22T15:16:10;9.80;71.90
11387;DHT22;5748;53.102;8.456;2023-12-22T15:18:37;9.80;72.00
11387;DHT22;5748;53.102;8.456;2023-12-22T15:21:04;9.80;72.00
11387;DHT22;5748;53.102;8.456;2023-12-22T15:23:33;9.80;72.00
11387;DHT22;5748;53.102;8.456;2023-12-22T15:26:00;9.70;72.00
11387;DHT22;5748;53.102;8.456;2023-12-22T15:28:27;9.70;72.00
11387;DHT22;5748;53.102;8.456;2023-12-22T15:30:54;9.70;72.20
11387;DHT22;5748;53.102;8.456;2023-12-22T15:33:21;9.70;72.30
11387;DHT22;5748;53.102;8.456;2023-12-22T15:35:54;9.70;72.40
11387;DHT22;5748;53.102;8.456;2023-12-22T15:38:21;9.70;72.40
11387;DHT22;5748;53.102;8.456;2023-12-22T15:40:50;9.70;72.30
11387;DHT22;5748;53.102;8.456;2023-12-22T15:43:17;9.70;72.40
11387;DHT22;5748;53.102;8.456;2023-12-22T15:45:44;9.60;72.20
11387;DHT22;5748;53.102;8.456;2023-12-22T15:48:11;9.60;72.20
11387;DHT22;5748;53.102;8.456;2023-12-22T15:50:41;9.70;72.30
11387;DHT22;5748;53.102;8.456;2023-12-22T15:53:10;9.70;72.30
11387;DHT22;5748;53.102;8.456;2023-12-22T15:55:37;9.70;73.00
11387;DHT22;5748;53.102;8.456;2023-12-22T15:58:05;9.60;72.30
11387;DHT22;5748;53.102;8.456;2023-12-22T16:00:32;9.60;72.30
11387;DHT22;5748;53.102;8.456;2023-12-22T16:02:59;9.60;72.30